sensor_id;sensor_type;location;lat;lon;timestamp;P1;durP1;ratioP1;P2;durP2;ratioP2
22415;SDS011;12204;50.600;4.608;2024-03-22T00:03:41;9.52;;;3.55;;
22415;SDS011;12204;50.600;4.608;2024-03-22T00:08:45;9.93;;;3.88;;
22415;SDS011;12204;50.600;4.608;2024-03-22T00:13:47;8.77;;;3.75;;
22415;SDS011;12204;50.600;4.608;2024-03-22T00:18:50;9.32;;;3.70;;
22415;SDS011;12204;50.600;4.608;2024-03-22T00:23:53;8.93;;;3.63;;
22415;SDS011;12204;50.600;4.608;2024-03-22T00:28:56;8.43;;;3.45;;
22415;SDS011;12204;50.600;4.608;2024-03-22T00:33:59;8.93;;;4.13;;
22415;SDS011;12204;50.600;4.608;2024-03-22T00:39:03;11.10;;;3.78;;
22415;SDS011;12204;50.600;4.608;2024-03-22T00:44:05;9.88;;;3.50;;
22415;SDS011;12204;50.600;4.608;2024-03-22T00:49:08;8.55;;;3.88;;
22415;SDS011;12204;50.600;4.608;2024-03-22T00:54:12;9.05;;;3.90;;
22415;SDS011;12204;50.600;4.608;2024-03-22T00:59:15;9.52;;;3.67;;
22415;SDS011;12204;50.600;4.608;2024-03-22T01:04:18;9.68;;;3.85;;
22415;SDS011;12204;50.600;4.608;2024-03-22T01:09:22;9.48;;;4.00;;
22415;SDS011;12204;50.600;4.608;2024-03-22T01:14:24;10.05;;;4.03;;
22415;SDS011;12204;50.600;4.608;2024-03-22T01:19:27;8.98;;;3.72;;
22415;SDS011;12204;50.600;4.608;2024-03-22T01:24:31;8.98;;;3.85;;
22415;SDS011;12204;50.600;4.608;2024-03-22T01:29:33;8.35;;;3.20;;
22415;SDS011;12204;50.600;4.608;2024-03-22T01:34:36;7.90;;;3.90;;
22415;SDS011;12204;50.600;4.608;2024-03-22T01:39:40;8.95;;;3.47;;
22415;SDS011;12204;50.600;4.608;2024-03-22T01:44:43;9.63;;;3.65;;
22415;SDS011;12204;50.600;4.608;2024-03-22T01:49:45;9.77;;;3.53;;
22415;SDS011;12204;50.600;4.608;2024-03-22T01:54:50;7.43;;;3.45;;
22415;SDS011;12204;50.600;4.608;2024-03-22T01:59:53;8.90;;;3.53;;
22415;SDS011;12204;50.600;4.608;2024-03-22T02:04:58;9.63;;;3.50;;
22415;SDS011;12204;50.600;4.608;2024-03-22T02:10:02;10.05;;;3.90;;
22415;SDS011;12204;50.600;4.608;2024-03-22T02:15:08;7.37;;;3.60;;
22415;SDS011;12204;50.600;4.608;2024-03-22T02:20:11;8.32;;;3.63;;
22415;SDS011;12204;50.600;4.608;2024-03-22T02:25:15;9.55;;;3.47;;
22415;SDS011;12204;50.600;4.608;2024-03-22T02:30:17;11.05;;;3.75;;
22415;SDS011;12204;50.600;4.608;2024-03-22T02:35:20;7.93;;;3.47;;
22415;SDS011;12204;50.600;4.608;2024-03-22T02:40:24;6.43;;;3.22;;
22415;SDS011;12204;50.600;4.608;2024-03-22T02:45:26;9.48;;;3.83;;
22415;SDS011;12204;50.600;4.608;2024-03-22T02:50:32;8.40;;;3.50;;
22415;SDS011;12204;50.600;4.608;2024-03-22T02:55:39;7.75;;;3.50;;
22415;SDS011;12204;50.600;4.608;2024-03-22T03:00:42;7.45;;;3.42;;
22415;SDS011;12204;50.600;4.608;2024-03-22T03:05:45;7.55;;;3.33;;
22415;SDS011;12204;50.600;4.608;2024-03-22T03:10:49;6.65;;;3.30;;
22415;SDS011;12204;50.600;4.608;2024-03-22T03:15:51;7.28;;;3.47;;
22415;SDS011;12204;50.600;4.608;2024-03-22T03:20:53;8.13;;;3.53;;
22415;SDS011;12204;50.600;4.608;2024-03-22T03:25:57;6.50;;;3.25;;
22415;SDS011;12204;50.600;4.608;2024-03-22T03:31:00;8.95;;;3.17;;
22415;SDS011;12204;50.600;4.608;2024-03-22T03:36:02;8.13;;;3.40;;
22415;SDS011;12204;50.600;4.608;2024-03-22T03:41:08;9.07;;;3.28;;
22415;SDS011;12204;50.600;4.608;2024-03-22T03:46:10;6.65;;;3.17;;
22415;SDS011;12204;50.600;4.608;2024-03-22T03:51:12;6.60;;;3.20;;
22415;SDS011;12204;50.600;4.608;2024-03-22T03:56:16;9.75;;;3.30;;
22415;SDS011;12204;50.600;4.608;2024-03-22T04:01:19;6.53;;;3.10;;
22415;SDS011;12204;50.600;4.608;2024-03-22T04:06:21;7.28;;;3.20;;
22415;SDS011;12204;50.600;4.608;2024-03-22T04:11:25;6.88;;;3.30;;
22415;SDS011;12204;50.600;4.608;2024-03-22T04:16:28;7.35;;;3.22;;
22415;SDS011;12204;50.600;4.608;2024-03-22T04:21:30;5.95;;;2.90;;
22415;SDS011;12204;50.600;4.608;2024-03-22T04:26:34;6.90;;;3.00;;
22415;SDS011;12204;50.600;4.608;2024-03-22T04:31:37;7.10;;;3.22;;
22415;SDS011;12204;50.600;4.608;2024-03-22T04:36:39;6.50;;;3.28;;
22415;SDS011;12204;50.600;4.608;2024-03-22T04:41:43;7.32;;;3.10;;
22415;SDS011;12204;50.600;4.608;2024-03-22T04:46:45;6.38;;;3.10;;
22415;SDS011;12204;50.600;4.608;2024-03-22T04:51:48;6.43;;;2.97;;
22415;SDS011;12204;50.600;4.608;2024-03-22T04:56:52;6.53;;;3.20;;
22415;SDS011;12204;50.600;4.608;2024-03-22T05:01:54;6.65;;;2.92;;
22415;SDS011;12204;50.600;4.608;2024-03-22T05:06:56;7.70;;;3.00;;
22415;SDS011;12204;50.600;4.608;2024-03-22T05:12:00;8.77;;;2.85;;
22415;SDS011;12204;50.600;4.608;2024-03-22T05:17:03;5.85;;;2.97;;
22415;SDS011;12204;50.600;4.608;2024-03-22T05:22:06;8.90;;;2.90;;
22415;SDS011;12204;50.600;4.608;2024-03-22T05:27:09;5.65;;;2.88;;
22415;SDS011;12204;50.600;4.608;2024-03-22T05:32:13;7.05;;;2.97;;
22415;SDS011;12204;50.600;4.608;2024-03-22T05:37:15;5.65;;;2.55;;
22415;SDS011;12204;50.600;4.608;2024-03-22T05:42:19;6.18;;;2.88;;
22415;SDS011;12204;50.600;4.608;2024-03-22T05:47:22;6.20;;;2.70;;
22415;SDS011;12204;50.600;4.608;2024-03-22T05:52:24;6.25;;;2.42;;
22415;SDS011;12204;50.600;4.608;2024-03-22T05:57:28;6.68;;;2.90;;
22415;SDS011;12204;50.600;4.608;2024-03-22T06:02:30;6.43;;;2.90;;
22415;SDS011;12204;50.600;4.608;2024-03-22T06:07:33;4.90;;;2.40;;
22415;SDS011;12204;50.600;4.608;2024-03-22T06:12:42;7.18;;;2.80;;
22415;SDS011;12204;50.600;4.608;2024-03-22T06:17:47;5.90;;;2.80;;
22415;SDS011;12204;50.600;4.608;2024-03-22T06:22:50;6.70;;;2.45;;
22415;SDS011;12204;50.600;4.608;2024-03-22T06:27:54;7.40;;;2.85;;
22415;SDS011;12204;50.600;4.608;2024-03-22T06:32:57;11.10;;;2.58;;
22415;SDS011;12204;50.600;4.608;2024-03-22T06:37:59;11.63;;;2.75;;
22415;SDS011;12204;50.600;4.608;2024-03-22T06:43:04;13.00;;;2.65;;
22415;SDS011;12204;50.600;4.608;2024-03-22T06:48:06;8.95;;;2.80;;
22415;SDS011;12204;50.600;4.608;2024-03-22T06:53:09;9.38;;;3.35;;
22415;SDS011;12204;50.600;4.608;2024-03-22T06:58:13;8.68;;;3.30;;
22415;SDS011;12204;50.600;4.608;2024-03-22T07:03:15;14.05;;;3.40;;
22415;SDS011;12204;50.600;4.608;2024-03-22T07:08:18;9.55;;;4.10;;
22415;SDS011;12204;50.600;4.608;2024-03-22T07:13:22;11.57;;;4.18;;
22415;SDS011;12204;50.600;4.608;2024-03-22T07:18:24;8.30;;;4.32;;
22415;SDS011;12204;50.600;4.608;2024-03-22T07:23:27;9.98;;;3.95;;
22415;SDS011;12204;50.600;4.608;2024-03-22T07:28:31;9.82;;;4.07;;
22415;SDS011;12204;50.600;4.608;2024-03-22T07:33:34;9.40;;;3.97;;
22415;SDS011;12204;50.600;4.608;2024-03-22T07:38:36;9.35;;;3.80;;
22415;SDS011;12204;50.600;4.608;2024-03-22T07:43:40;10.15;;;3.83;;
22415;SDS011;12204;50.600;4.608;2024-03-22T07:48:43;12.25;;;3.83;;
22415;SDS011;12204;50.600;4.608;2024-03-22T07:53:45;14.47;;;5.07;;
22415;SDS011;12204;50.600;4.608;2024-03-22T07:58:49;12.73;;;6.50;;
22415;SDS011;12204;50.600;4.608;2024-03-22T08:03:52;18.65;;;8.20;;
22415;SDS011;12204;50.600;4.608;2024-03-22T08:08:54;15.23;;;8.93;;
22415;SDS011;12204;50.600;4.608;2024-03-22T08:13:58;17.25;;;10.15;;
22415;SDS011;12204;50.600;4.608;2024-03-22T08:19:03;18.67;;;11.00;;
22415;SDS011;12204;50.600;4.608;2024-03-22T08:24:06;19.38;;;11.35;;
22415;SDS011;12204;50.600;4.608;2024-03-22T08:29:10;21.85;;;12.80;;
22415;SDS011;12204;50.600;4.608;2024-03-22T08:34:13;20.67;;;12.60;;
22415;SDS011;12204;50.600;4.608;2024-03-22T08:39:15;18.23;;;10.93;;
22415;SDS011;12204;50.600;4.608;2024-03-22T08:44:19;19.38;;;11.52;;
22415;SDS011;12204;50.600;4.608;2024-03-22T08:49:22;20.50;;;10.27;;
22415;SDS011;12204;50.600;4.608;2024-03-22T08:54:25;24.45;;;10.00;;
22415;SDS011;12204;50.600;4.608;2024-03-22T08:59:28;22.92;;;9.02;;
22415;SDS011;12204;50.600;4.608;2024-03-22T09:04:31;20.95;;;9.32;;
22415;SDS011;12204;50.600;4.608;2024-03-22T09:09:33;18.55;;;9.40;;
22415;SDS011;12204;50.600;4.608;2024-03-22T09:14:37;17.73;;;9.15;;
22415;SDS011;12204;50.600;4.608;2024-03-22T09:19:40;18.95;;;9.27;;
22415;SDS011;12204;50.600;4.608;2024-03-22T09:24:43;15.70;;;8.13;;
22415;SDS011;12204;50.600;4.608;2024-03-22T09:29:48;14.32;;;7.72;;
22415;SDS011;12204;50.600;4.608;2024-03-22T09:34:50;17.95;;;7.85;;
22415;SDS011;12204;50.600;4.608;2024-03-22T09:39:53;14.63;;;7.97;;
22415;SDS011;12204;50.600;4.608;2024-03-22T09:44:57;13.07;;;7.28;;
22415;SDS011;12204;50.600;4.608;2024-03-22T09:49:59;15.77;;;7.45;;
22415;SDS011;12204;50.600;4.608;2024-03-22T09:55:03;12.18;;;6.80;;
22415;SDS011;12204;50.600;4.608;2024-03-22T10:00:10;13.57;;;6.88;;
22415;SDS011;12204;50.600;4.608;2024-03-22T10:05:17;11.50;;;6.35;;
22415;SDS011;12204;50.600;4.608;2024-03-22T10:10:20;12.52;;;6.38;;
22415;SDS011;12204;50.600;4.608;2024-03-22T10:15:24;12.88;;;6.00;;
22415;SDS011;12204;50.600;4.608;2024-03-22T10:20:27;10.45;;;5.88;;
22415;SDS011;12204;50.600;4.608;2024-03-22T10:25:30;11.75;;;5.80;;
22415;SDS011;12204;50.600;4.608;2024-03-22T10:30:35;12.13;;;5.68;;
22415;SDS011;12204;50.600;4.608;2024-03-22T10:35:39;11.40;;;5.90;;
22415;SDS011;12204;50.600;4.608;2024-03-22T10:40:43;14.27;;;7.60;;
22415;SDS011;12204;50.600;4.608;2024-03-22T10:45:49;21.85;;;8.25;;
22415;SDS011;12204;50.600;4.608;2024-03-22T10:50:59;26.50;;;8.40;;
22415;SDS011;12204;50.600;4.608;2024-03-22T10:56:03;21.00;;;8.15;;
22415;SDS011;12204;50.600;4.608;2024-03-22T11:01:21;16.77;;;8.13;;
22415;SDS011;12204;50.600;4.608;2024-03-22T11:06:26;14.95;;;7.50;;
22415;SDS011;12204;50.600;4.608;2024-03-22T11:11:29;13.23;;;7.03;;
22415;SDS011;12204;50.600;4.608;2024-03-22T11:16:38;15.23;;;6.53;;
22415;SDS011;12204;50.600;4.608;2024-03-22T11:21:45;13.05;;;5.57;;
22415;SDS011;12204;50.600;4.608;2024-03-22T11:26:48;15.20;;;6.05;;
22415;SDS011;12204;50.600;4.608;2024-03-22T11:31:52;12.77;;;5.38;;
22415;SDS011;12204;50.600;4.608;2024-03-22T11:36:54;10.98;;;5.10;;
22415;SDS011;12204;50.600;4.608;2024-03-22T11:41:57;11.63;;;4.72;;
22415;SDS011;12204;50.600;4.608;2024-03-22T11:47:01;10.93;;;4.40;;
22415;SDS011;12204;50.600;4.608;2024-03-22T11:52:04;13.43;;;4.63;;
22415;SDS011;12204;50.600;4.608;2024-03-22T11:57:09;9.25;;;4.30;;
22415;SDS011;12204;50.600;4.608;2024-03-22T12:02:13;10.75;;;4.18;;
22415;SDS011;12204;50.600;4.608;2024-03-22T12:07:17;9.80;;;3.85;;
22415;SDS011;12204;50.600;4.608;2024-03-22T12:12:21;9.80;;;3.70;;
22415;SDS011;12204;50.600;4.608;2024-03-22T12:17:25;9.13;;;3.55;;
22415;SDS011;12204;50.600;4.608;2024-03-22T12:22:28;7.90;;;3.50;;
22415;SDS011;12204;50.600;4.608;2024-03-22T12:27:30;8.43;;;3.45;;
22415;SDS011;12204;50.600;4.608;2024-03-22T12:32:34;7.22;;;3.50;;
22415;SDS011;12204;50.600;4.608;2024-03-22T12:37:37;7.38;;;3.28;;
22415;SDS011;12204;50.600;4.608;2024-03-22T12:42:41;9.35;;;3.33;;
22415;SDS011;12204;50.600;4.608;2024-03-22T12:47:45;6.30;;;3.17;;
22415;SDS011;12204;50.600;4.608;2024-03-22T12:52:48;8.90;;;3.15;;
22415;SDS011;12204;50.600;4.608;2024-03-22T12:57:51;7.82;;;3.20;;
22415;SDS011;12204;50.600;4.608;2024-03-22T13:02:55;6.70;;;3.10;;
22415;SDS011;12204;50.600;4.608;2024-03-22T13:08:00;6.80;;;2.97;;
22415;SDS011;12204;50.600;4.608;2024-03-22T13:13:03;7.07;;;2.80;;
22415;SDS011;12204;50.600;4.608;2024-03-22T13:18:07;7.53;;;3.10;;
22415;SDS011;12204;50.600;4.608;2024-03-22T13:23:10;6.47;;;2.90;;
22415;SDS011;12204;50.600;4.608;2024-03-22T13:28:13;6.38;;;2.83;;
22415;SDS011;12204;50.600;4.608;2024-03-22T13:33:21;6.73;;;2.80;;
22415;SDS011;12204;50.600;4.608;2024-03-22T13:38:24;7.15;;;3.10;;
22415;SDS011;12204;50.600;4.608;2024-03-22T13:43:27;6.55;;;2.65;;
22415;SDS011;12204;50.600;4.608;2024-03-22T13:48:31;7.20;;;2.70;;
22415;SDS011;12204;50.600;4.608;2024-03-22T13:53:33;6.80;;;3.20;;
22415;SDS011;12204;50.600;4.608;2024-03-22T13:58:36;7.97;;;3.00;;
22415;SDS011;12204;50.600;4.608;2024-03-22T14:03:39;8.82;;;2.70;;
22415;SDS011;12204;50.600;4.608;2024-03-22T14:08:42;5.85;;;2.70;;
22415;SDS011;12204;50.600;4.608;2024-03-22T14:13:44;6.18;;;2.67;;
22415;SDS011;12204;50.600;4.608;2024-03-22T14:18:48;5.57;;;2.75;;
22415;SDS011;12204;50.600;4.608;2024-03-22T14:23:51;6.03;;;2.67;;
22415;SDS011;12204;50.600;4.608;2024-03-22T14:28:54;5.45;;;2.53;;
22415;SDS011;12204;50.600;4.608;2024-03-22T14:33:57;5.80;;;2.65;;
22415;SDS011;12204;50.600;4.608;2024-03-22T14:39:00;6.25;;;2.80;;
22415;SDS011;12204;50.600;4.608;2024-03-22T14:44:05;6.85;;;2.60;;
22415;SDS011;12204;50.600;4.608;2024-03-22T14:49:09;6.38;;;2.70;;
22415;SDS011;12204;50.600;4.608;2024-03-22T14:54:11;7.10;;;2.72;;
22415;SDS011;12204;50.600;4.608;2024-03-22T14:59:14;9.00;;;3.47;;
22415;SDS011;12204;50.600;4.608;2024-03-22T15:04:18;8.77;;;3.70;;
22415;SDS011;12204;50.600;4.608;2024-03-22T15:09:20;9.43;;;3.60;;
22415;SDS011;12204;50.600;4.608;2024-03-22T15:14:23;9.70;;;3.60;;
22415;SDS011;12204;50.600;4.608;2024-03-22T15:19:29;8.35;;;3.38;;
22415;SDS011;12204;50.600;4.608;2024-03-22T15:24:31;9.15;;;3.45;;
22415;SDS011;12204;50.600;4.608;2024-03-22T15:29:34;7.18;;;3.22;;
22415;SDS011;12204;50.600;4.608;2024-03-22T15:34:38;7.70;;;3.08;;
22415;SDS011;12204;50.600;4.608;2024-03-22T15:39:40;6.50;;;2.90;;
22415;SDS011;12204;50.600;4.608;2024-03-22T15:44:43;7.35;;;2.90;;
22415;SDS011;12204;50.600;4.608;2024-03-22T15:49:47;6.50;;;2.85;;
22415;SDS011;12204;50.600;4.608;2024-03-22T15:54:49;5.57;;;2.67;;
22415;SDS011;12204;50.600;4.608;2024-03-22T15:59:54;7.90;;;2.80;;
22415;SDS011;12204;50.600;4.608;2024-03-22T16:04:57;6.28;;;2.75;;
22415;SDS011;12204;50.600;4.608;2024-03-22T16:10:00;6.32;;;2.38;;
22415;SDS011;12204;50.600;4.608;2024-03-22T16:15:04;5.80;;;2.58;;
22415;SDS011;12204;50.600;4.608;2024-03-22T16:20:09;6.47;;;2.45;;
22415;SDS011;12204;50.600;4.608;2024-03-22T16:25:13;7.72;;;2.53;;
22415;SDS011;12204;50.600;4.608;2024-03-22T16:30:15;7.85;;;2.60;;
22415;SDS011;12204;50.600;4.608;2024-03-22T16:35:19;5.07;;;2.13;;
22415;SDS011;12204;50.600;4.608;2024-03-22T16:40:22;6.75;;;2.42;;
22415;SDS011;12204;50.600;4.608;2024-03-22T16:45:25;7.85;;;2.70;;
22415;SDS011;12204;50.600;4.608;2024-03-22T16:50:29;11.10;;;2.20;;
22415;SDS011;12204;50.600;4.608;2024-03-22T16:55:31;7.00;;;2.40;;
22415;SDS011;12204;50.600;4.608;2024-03-22T17:00:34;6.65;;;2.22;;
22415;SDS011;12204;50.600;4.608;2024-03-22T17:05:40;7.72;;;2.15;;
22415;SDS011;12204;50.600;4.608;2024-03-22T17:10:42;33.70;;;4.07;;
22415;SDS011;12204;50.600;4.608;2024-03-22T17:15:45;36.80;;;4.43;;
22415;SDS011;12204;50.600;4.608;2024-03-22T17:20:49;30.17;;;3.95;;
22415;SDS011;12204;50.600;4.608;2024-03-22T17:25:57;36.70;;;4.00;;
22415;SDS011;12204;50.600;4.608;2024-03-22T17:31:00;26.08;;;3.95;;
22415;SDS011;12204;50.600;4.608;2024-03-22T17:36:05;25.88;;;3.72;;
22415;SDS011;12204;50.600;4.608;2024-03-22T17:41:08;26.52;;;3.80;;
22415;SDS011;12204;50.600;4.608;2024-03-22T17:46:11;24.15;;;3.60;;
22415;SDS011;12204;50.600;4.608;2024-03-22T17:51:15;21.35;;;3.28;;
22415;SDS011;12204;50.600;4.608;2024-03-22T17:56:19;24.83;;;3.55;;
22415;SDS011;12204;50.600;4.608;2024-03-22T18:01:21;24.20;;;3.42;;
22415;SDS011;12204;50.600;4.608;2024-03-22T18:06:25;21.98;;;3.13;;
22415;SDS011;12204;50.600;4.608;2024-03-22T18:11:28;19.80;;;3.28;;
22415;SDS011;12204;50.600;4.608;2024-03-22T18:16:31;14.40;;;2.33;;
22415;SDS011;12204;50.600;4.608;2024-03-22T18:21:37;21.83;;;2.97;;
22415;SDS011;12204;50.600;4.608;2024-03-22T18:26:42;18.70;;;2.45;;
22415;SDS011;12204;50.600;4.608;2024-03-22T18:31:44;17.95;;;2.70;;
22415;SDS011;12204;50.600;4.608;2024-03-22T18:36:48;13.20;;;2.20;;
22415;SDS011;12204;50.600;4.608;2024-03-22T18:41:51;13.10;;;2.30;;
22415;SDS011;12204;50.600;4.608;2024-03-22T18:46:53;28.02;;;2.80;;
22415;SDS011;12204;50.600;4.608;2024-03-22T18:51:57;23.85;;;2.92;;
22415;SDS011;12204;50.600;4.608;2024-03-22T18:57:00;24.05;;;2.90;;
22415;SDS011;12204;50.600;4.608;2024-03-22T19:02:06;24.60;;;2.55;;
22415;SDS011;12204;50.600;4.608;2024-03-22T19:07:10;18.95;;;2.58;;
22415;SDS011;12204;50.600;4.608;2024-03-22T19:12:13;16.83;;;2.70;;
22415;SDS011;12204;50.600;4.608;2024-03-22T19:17:15;15.50;;;2.30;;
22415;SDS011;12204;50.600;4.608;2024-03-22T19:22:19;15.27;;;2.22;;
22415;SDS011;12204;50.600;4.608;2024-03-22T19:27:22;14.27;;;2.30;;
22415;SDS011;12204;50.600;4.608;2024-03-22T19:32:24;10.25;;;2.20;;
22415;SDS011;12204;50.600;4.608;2024-03-22T19:37:28;11.65;;;2.03;;
22415;SDS011;12204;50.600;4.608;2024-03-22T19:42:31;14.68;;;2.10;;
22415;SDS011;12204;50.600;4.608;2024-03-22T19:47:33;11.45;;;2.00;;
22415;SDS011;12204;50.600;4.608;2024-03-22T19:52:37;12.35;;;2.35;;
22415;SDS011;12204;50.600;4.608;2024-03-22T19:57:40;14.52;;;2.28;;
22415;SDS011;12204;50.600;4.608;2024-03-22T20:02:42;11.02;;;2.10;;
22415;SDS011;12204;50.600;4.608;2024-03-22T20:07:46;9.20;;;1.92;;
22415;SDS011;12204;50.600;4.608;2024-03-22T20:12:49;10.20;;;2.28;;
22415;SDS011;12204;50.600;4.608;2024-03-22T20:17:52;11.48;;;2.17;;
22415;SDS011;12204;50.600;4.608;2024-03-22T20:22:56;10.88;;;2.10;;
22415;SDS011;12204;50.600;4.608;2024-03-22T20:27:58;9.55;;;1.98;;
22415;SDS011;12204;50.600;4.608;2024-03-22T20:33:04;11.13;;;2.10;;
